Time;durP1;ratioP1;P1;durP2;ratioP2;P2;SDS_P1;SDS_P2;PMS_P1;PMS_P2;Temp;Humidity;BMP_temperature;BMP_pressure;BME280_temperature;BME280_humidity;BME280_pressure;Samples;Min_cycle;Max_cycle;Signal;HPM_P1;HPM_P2
2022/06/27 00:00:21;;;;;;;5.57;2.95;;;;;;;;;;5072424;28;20028;-39
2022/06/27 00:02:47;;;;;;;3.03;2.50;;;;;;;;;;5074161;28;20422;-42
2022/06/27 00:05:12;;;;;;;3.45;2.63;;;;;;;;;;5074136;28;20484;-41
2022/06/27 00:07:38;;;;;;;2.72;2.53;;;;;;;;;;5074274;28;20025;-41
2022/06/27 00:10:05;;;;;;;4.68;2.42;;;;;;;;;;5074232;28;20048;-40
2022/06/27 00:12:30;;;;;;;2.63;2.42;;;;;;;;;;5074689;28;20473;-42
2022/06/27 00:14:56;;;;;;;5.10;2.70;;;;;;;;;;5074599;28;20036;-42
2022/06/27 00:17:21;;;;;;;2.63;2.42;;;;;;;;;;5074701;28;20059;-46
2022/06/27 00:19:47;;;;;;;2.38;2.22;;;;;;;;;;5074469;28;20033;-44
2022/06/27 00:22:12;;;;;;;2.80;2.60;;;;;;;;;;5074242;28;20031;-44
2022/06/27 00:24:37;;;;;;;3.10;2.60;;;;;;;;;;5074469;28;20017;-39
2022/06/27 00:27:03;;;;;;;2.58;2.38;;;;;;;;;;5074220;28;20381;-39
2022/06/27 00:29:29;;;;;;;2.42;2.28;;;;;;;;;;5074592;28;20028;-39
2022/06/27 00:31:54;;;;;;;2.50;2.30;;;;;;;;;;5074121;28;20017;-42
2022/06/27 00:34:19;;;;;;;5.70;2.33;;;;;;;;;;5073514;28;20491;-39
2022/06/27 00:36:45;;;;;;;2.45;2.25;;;;;;;;;;5074296;28;20047;-39
2022/06/27 00:39:10;;;;;;;3.25;2.30;;;;;;;;;;5073009;28;20181;-39
2022/06/27 00:41:36;;;;;;;2.50;2.30;;;;;;;;;;5074171;28;20104;-39
2022/06/27 00:44:02;;;;;;;4.63;2.47;;;;;;;;;;5072812;28;20116;-39
2022/06/27 00:46:29;;;;;;;3.58;2.38;;;;;;;;;;5074075;28;20388;-40
2022/06/27 00:48:55;;;;;;;2.40;2.20;;;;;;;;;;5074031;28;20031;-42
2022/06/27 00:51:20;;;;;;;3.42;2.30;;;;;;;;;;5072765;28;20109;-39
2022/06/27 00:53:46;;;;;;;2.50;2.30;;;;;;;;;;5073938;28;20081;-41
2022/06/27 00:56:12;;;;;;;4.55;2.80;;;;;;;;;;5073856;28;20064;-42
2022/06/27 00:58:38;;;;;;;2.50;2.30;;;;;;;;;;5073834;28;20027;-40
2022/06/27 01:01:03;;;;;;;2.65;2.35;;;;;;;;;;5072859;28;20099;-40
2022/06/27 01:03:29;;;;;;;2.42;2.22;;;;;;;;;;5072863;28;20032;-39
2022/06/27 01:05:56;;;;;;;3.17;2.70;;;;;;;;;;5073701;28;20553;-41
2022/06/27 01:08:25;;;;;;;2.60;2.40;;;;;;;;;;5073246;28;20078;-39
2022/06/27 01:10:51;;;;;;;3.63;2.67;;;;;;;;;;5073466;28;20163;-39
2022/06/27 01:13:16;;;;;;;4.20;2.60;;;;;;;;;;5073535;28;20025;-39
2022/06/27 01:15:43;;;;;;;2.70;2.50;;;;;;;;;;5073445;28;20025;-39
2022/06/27 01:18:09;;;;;;;5.45;3.00;;;;;;;;;;5073245;28;20029;-42
2022/06/27 01:20:35;;;;;;;3.00;2.38;;;;;;;;;;5073722;28;20028;-39
2022/06/27 01:23:01;;;;;;;2.83;2.45;;;;;;;;;;5073332;28;20103;-39
2022/06/27 01:25:26;;;;;;;2.58;2.38;;;;;;;;;;5073359;28;20025;-39
2022/06/27 01:27:52;;;;;;;2.50;2.30;;;;;;;;;;5073001;28;20079;-39
2022/06/27 01:30:19;;;;;;;3.38;2.83;;;;;;;;;;5073510;28;20423;-39
2022/06/27 01:32:44;;;;;;;4.82;3.10;;;;;;;;;;5072366;28;20056;-41
2022/06/27 01:35:10;;;;;;;3.42;3.08;;;;;;;;;;5071013;28;20451;-41
2022/06/27 01:37:36;;;;;;;6.75;2.65;;;;;;;;;;5071312;28;20511;-42
2022/06/27 01:40:02;;;;;;;5.25;2.63;;;;;;;;;;5071293;28;20434;-42
2022/06/27 01:42:28;;;;;;;4.80;2.50;;;;;;;;;;5071894;28;20020;-39
2022/06/27 01:44:54;;;;;;;3.10;2.80;;;;;;;;;;5073206;28;20066;-39
2022/06/27 01:47:19;;;;;;;4.38;2.60;;;;;;;;;;5072885;28;20369;-39
2022/06/27 01:49:45;;;;;;;2.85;2.55;;;;;;;;;;5072856;28;20036;-39
2022/06/27 01:52:14;;;;;;;2.70;2.50;;;;;;;;;;5072789;28;20438;-40
2022/06/27 01:54:40;;;;;;;2.70;2.50;;;;;;;;;;5073027;28;20024;-42
2022/06/27 01:57:08;;;;;;;4.60;2.70;;;;;;;;;;5072584;28;20043;-39
2022/06/27 01:59:33;;;;;;;2.92;2.50;;;;;;;;;;5072255;28;20035;-39
2022/06/27 02:02:00;;;;;;;2.40;2.20;;;;;;;;;;5071576;28;20024;-39
2022/06/27 02:04:27;;;;;;;5.78;2.80;;;;;;;;;;5072658;28;20028;-40
2022/06/27 02:06:54;;;;;;;2.80;2.60;;;;;;;;;;5072668;28;20111;-39
2022/06/27 02:09:19;;;;;;;4.63;2.92;;;;;;;;;;5072652;28;20059;-39
2022/06/27 02:11:46;;;;;;;3.70;3.30;;;;;;;;;;5072847;28;20060;-39
2022/06/27 02:14:13;;;;;;;5.60;3.90;;;;;;;;;;5072855;28;20027;-40
2022/06/27 02:16:40;;;;;;;3.17;2.97;;;;;;;;;;5072473;28;20039;-39
2022/06/27 02:19:05;;;;;;;3.78;3.47;;;;;;;;;;5072796;28;20066;-39
2022/06/27 02:21:31;;;;;;;3.45;3.15;;;;;;;;;;5072761;28;20025;-39
2022/06/27 02:23:58;;;;;;;3.97;3.50;;;;;;;;;;5071991;28;20021;-39
2022/06/27 02:26:26;;;;;;;4.95;3.67;;;;;;;;;;5072251;28;20045;-39
2022/06/27 02:28:53;;;;;;;8.30;4.22;;;;;;;;;;5073010;28;20029;-39
2022/06/27 02:31:20;;;;;;;3.33;3.03;;;;;;;;;;5072222;28;20056;-39
2022/06/27 02:33:46;;;;;;;3.10;2.63;;;;;;;;;;5072345;28;20028;-39
2022/06/27 02:36:21;;;;;;;7.45;2.55;;;;;;;;;;5072545;28;20536;-39
2022/06/27 02:38:51;;;;;;;4.75;2.85;;;;;;;;;;5072622;28;20353;-39
2022/06/27 02:41:19;;;;;;;4.47;3.22;;;;;;;;;;5072315;28;20029;-39
2022/06/27 02:43:48;;;;;;;5.53;2.70;;;;;;;;;;5072207;28;20044;-39
2022/06/27 02:46:14;;;;;;;4.28;2.80;;;;;;;;;;5072550;28;20017;-39
2022/06/27 02:48:41;;;;;;;2.90;2.70;;;;;;;;;;5072455;28;20491;-39
2022/06/27 02:51:14;;;;;;;3.42;2.92;;;;;;;;;;5072184;28;20027;-39
2022/06/27 02:53:52;;;;;;;6.30;3.08;;;;;;;;;;5072467;28;20090;-39
2022/06/27 02:56:23;;;;;;;5.40;3.10;;;;;;;;;;5072681;28;20036;-39
2022/06/27 02:59:02;;;;;;;3.03;2.72;;;;;;;;;;5072417;28;20375;-39
2022/06/27 03:01:30;;;;;;;2.97;2.78;;;;;;;;;;5072165;28;20036;-39
2022/06/27 03:03:57;;;;;;;4.78;3.03;;;;;;;;;;5072135;28;20391;-39
2022/06/27 03:06:23;;;;;;;3.63;2.85;;;;;;;;;;5072089;28;20033;-39
2022/06/27 03:08:48;;;;;;;3.03;2.80;;;;;;;;;;5072066;28;20043;-39
2022/06/27 03:11:18;;;;;;;4.93;3.05;;;;;;;;;;5072027;28;20024;-39
2022/06/27 03:13:45;;;;;;;4.57;2.60;;;;;;;;;;5072036;28;20028;-40
2022/06/27 03:16:11;;;;;;;3.15;2.90;;;;;;;;;;5071955;28;20374;-39
2022/06/27 03:18:37;;;;;;;7.40;2.80;;;;;;;;;;5071919;28;20545;-39
2022/06/27 03:21:02;;;;;;;2.88;2.67;;;;;;;;;;5072494;28;20032;-38
2022/06/27 03:23:29;;;;;;;5.40;2.55;;;;;;;;;;5072117;28;20021;-39
2022/06/27 03:25:54;;;;;;;2.58;2.38;;;;;;;;;;5071823;28;20131;-40
2022/06/27 03:28:20;;;;;;;5.22;2.28;;;;;;;;;;5071855;28;20112;-39
2022/06/27 03:30:46;;;;;;;6.72;2.42;;;;;;;;;;5071864;28;20028;-40
2022/06/27 03:33:12;;;;;;;2.33;2.20;;;;;;;;;;5072038;28;20024;-39
2022/06/27 03:35:38;;;;;;;2.85;2.22;;;;;;;;;;5073967;28;20077;-40
2022/06/27 03:38:03;;;;;;;2.55;2.35;;;;;;;;;;5075585;28;20039;-41
2022/06/27 03:40:29;;;;;;;4.72;2.30;;;;;;;;;;5075672;28;20103;-40
2022/06/27 03:42:54;;;;;;;2.75;2.00;;;;;;;;;;5075331;28;20025;-40
2022/06/27 03:45:20;;;;;;;4.30;2.13;;;;;;;;;;5075502;28;20025;-40
2022/06/27 03:47:52;;;;;;;1.90;1.80;;;;;;;;;;5075502;28;20112;-40
2022/06/27 03:50:19;;;;;;;3.30;1.90;;;;;;;;;;5075440;28;20021;-40
2022/06/27 03:52:45;;;;;;;2.22;2.10;;;;;;;;;;5075148;28;20059;-39
2022/06/27 03:55:11;;;;;;;2.10;1.90;;;;;;;;;;5075030;28;20056;-39
2022/06/27 03:57:50;;;;;;;4.13;1.98;;;;;;;;;;5075032;28;20028;-39
2022/06/27 04:00:17;;;;;;;2.92;1.83;;;;;;;;;;5075092;28;20074;-39
2022/06/27 04:02:42;;;;;;;3.30;2.10;;;;;;;;;;5075001;28;20046;-40
2022/06/27 04:05:08;;;;;;;2.80;2.10;;;;;;;;;;5075207;28;20028;-39
2022/06/27 04:07:34;;;;;;;2.50;2.30;;;;;;;;;;5075087;28;20066;-39
2022/06/27 04:10:00;;;;;;;7.07;3.20;;;;;;;;;;5074754;28;20067;-39
2022/06/27 04:12:25;;;;;;;6.60;2.97;;;;;;;;;;5074715;28;20028;-40
2022/06/27 04:14:52;;;;;;;3.60;2.50;;;;;;;;;;5074629;28;20063;-39
2022/06/27 04:17:17;;;;;;;4.30;2.58;;;;;;;;;;5074633;28;20448;-39
2022/06/27 04:19:43;;;;;;;4.03;2.78;;;;;;;;;;5074624;28;20103;-40
2022/06/27 04:22:08;;;;;;;2.95;2.65;;;;;;;;;;5074834;28;20476;-40
2022/06/27 04:24:37;;;;;;;2.30;2.20;;;;;;;;;;5074798;28;20479;-39
2022/06/27 04:27:04;;;;;;;2.90;2.63;;;;;;;;;;5074410;28;20048;-40
2022/06/27 04:29:30;;;;;;;3.72;2.50;;;;;;;;;;5074467;28;20032;-40
2022/06/27 04:31:57;;;;;;;6.45;2.72;;;;;;;;;;5074601;28;20384;-39
2022/06/27 04:34:23;;;;;;;4.35;2.60;;;;;;;;;;5074600;28;20024;-40
2022/06/27 04:36:50;;;;;;;3.10;2.58;;;;;;;;;;5074760;28;20033;-40
2022/06/27 04:39:19;;;;;;;2.78;2.40;;;;;;;;;;5074573;28;20380;-44
2022/06/27 04:41:44;;;;;;;5.65;2.92;;;;;;;;;;5074429;28;20047;-40
2022/06/27 04:44:11;;;;;;;2.60;2.40;;;;;;;;;;5074129;28;20476;-46
2022/06/27 04:46:37;;;;;;;5.05;2.53;;;;;;;;;;5074062;28;20037;-46
2022/06/27 04:49:03;;;;;;;3.13;2.38;;;;;;;;;;5074297;28;20017;-41
2022/06/27 04:51:29;;;;;;;2.70;2.50;;;;;;;;;;5073997;28;20029;-46
2022/06/27 04:53:56;;;;;;;3.75;2.30;;;;;;;;;;5074250;28;20384;-45
2022/06/27 04:56:22;;;;;;;8.10;2.88;;;;;;;;;;5073855;28;20028;-40
2022/06/27 04:58:47;;;;;;;5.88;2.88;;;;;;;;;;5073871;28;20480;-39
2022/06/27 05:01:12;;;;;;;2.78;2.50;;;;;;;;;;5073805;28;20033;-39
2022/06/27 05:03:38;;;;;;;6.72;2.45;;;;;;;;;;5074000;28;20138;-39
2022/06/27 05:06:04;;;;;;;5.53;2.50;;;;;;;;;;5073673;28;20044;-39
2022/06/27 05:08:29;;;;;;;2.92;2.20;;;;;;;;;;5073579;28;20488;-41
2022/06/27 05:10:55;;;;;;;5.30;2.47;;;;;;;;;;5073552;28;20032;-39
2022/06/27 05:13:20;;;;;;;2.53;2.33;;;;;;;;;;5073506;28;20024;-40
2022/06/27 05:15:46;;;;;;;2.45;2.25;;;;;;;;;;5073867;28;20118;-40
2022/06/27 05:18:15;;;;;;;2.30;2.10;;;;;;;;;;5073468;28;20388;-44
2022/06/27 05:20:42;;;;;;;2.78;2.10;;;;;;;;;;5073599;28;20020;-39
2022/06/27 05:23:08;;;;;;;2.95;1.98;;;;;;;;;;5073358;28;20469;-40
2022/06/27 05:25:33;;;;;;;2.88;2.28;;;;;;;;;;5073459;28;20032;-40
2022/06/27 05:27:59;;;;;;;5.60;2.38;;;;;;;;;;5073099;28;20047;-37
2022/06/27 05:30:25;;;;;;;3.17;2.00;;;;;;;;;;5073160;28;20035;-37
2022/06/27 05:32:50;;;;;;;3.00;2.00;;;;;;;;;;5073389;28;20016;-39
2022/06/27 05:35:16;;;;;;;3.60;1.75;;;;;;;;;;5073050;28;20452;-38
2022/06/27 05:37:44;;;;;;;4.43;1.95;;;;;;;;;;5073023;28;20071;-45
2022/06/27 05:40:09;;;;;;;3.90;1.95;;;;;;;;;;5072995;28;20026;-42
2022/06/27 05:42:35;;;;;;;1.90;1.80;;;;;;;;;;5072927;28;20097;-38
2022/06/27 05:45:02;;;;;;;3.63;1.60;;;;;;;;;;5073249;28;20103;-40
2022/06/27 05:47:28;;;;;;;3.65;1.80;;;;;;;;;;5072805;28;20024;-41
2022/06/27 05:49:54;;;;;;;3.55;1.80;;;;;;;;;;5073180;28;20031;-44
2022/06/27 05:52:20;;;;;;;3.22;1.77;;;;;;;;;;5073030;28;20032;-40
2022/06/27 05:54:46;;;;;;;1.70;1.60;;;;;;;;;;5071536;28;20025;-38
2022/06/27 05:57:15;;;;;;;5.55;1.85;;;;;;;;;;5072335;28;20028;-39
2022/06/27 05:59:41;;;;;;;5.50;2.20;;;;;;;;;;5073092;28;20099;-38
2022/06/27 06:02:07;;;;;;;2.42;1.80;;;;;;;;;;5072622;28;20476;-40
2022/06/27 06:04:32;;;;;;;2.97;1.73;;;;;;;;;;5072767;28;20056;-47
2022/06/27 06:06:58;;;;;;;5.97;1.67;;;;;;;;;;5072850;28;20032;-38
2022/06/27 06:09:23;;;;;;;2.67;1.83;;;;;;;;;;5072914;28;20028;-40
2022/06/27 06:11:51;;;;;;;4.18;2.03;;;;;;;;;;5072571;28;20473;-38
2022/06/27 06:14:17;;;;;;;1.98;1.70;;;;;;;;;;5072600;28;20032;-37
2022/06/27 06:16:43;;;;;;;2.70;1.70;;;;;;;;;;5072608;28;20078;-39
2022/06/27 06:19:09;;;;;;;2.38;1.60;;;;;;;;;;5072252;28;20025;-45
2022/06/27 06:21:35;;;;;;;1.70;1.60;;;;;;;;;;5072481;28;20670;-40
2022/06/27 06:24:02;;;;;;;5.85;4.07;;;;;;;;;;5072747;28;20028;-40
2022/06/27 06:26:27;;;;;;;5.28;1.70;;;;;;;;;;5072127;28;20047;-51
2022/06/27 06:28:54;;;;;;;1.67;1.50;;;;;;;;;;5072723;28;20048;-39
2022/06/27 06:31:23;;;;;;;3.55;1.63;;;;;;;;;;5072513;28;20039;-44
2022/06/27 06:33:51;;;;;;;3.00;1.77;;;;;;;;;;5072617;28;20079;-45
2022/06/27 06:36:21;;;;;;;3.78;2.65;;;;;;;;;;5072067;28;20040;-43
2022/06/27 06:38:49;;;;;;;4.22;1.73;;;;;;;;;;5072194;28;20108;-47
2022/06/27 06:41:14;;;;;;;1.63;1.52;;;;;;;;;;5072133;28;20017;-41
2022/06/27 06:43:40;;;;;;;7.18;2.00;;;;;;;;;;5072545;28;20028;-41
2022/06/27 06:46:06;;;;;;;4.72;1.67;;;;;;;;;;5072487;28;20078;-47
2022/06/27 06:48:32;;;;;;;6.47;3.92;;;;;;;;;;5072207;28;20383;-44
2022/06/27 06:50:58;;;;;;;3.42;2.00;;;;;;;;;;5072120;28;20031;-38
2022/06/27 06:53:23;;;;;;;4.20;1.77;;;;;;;;;;5072481;28;20037;-44
2022/06/27 06:55:50;;;;;;;2.60;1.25;;;;;;;;;;5070868;28;20123;-38
2022/06/27 06:58:16;;;;;;;2.33;1.65;;;;;;;;;;5072419;28;20039;-42
2022/06/27 07:00:43;;;;;;;9.27;4.97;;;;;;;;;;5072240;28;20037;-42
2022/06/27 07:03:10;;;;;;;6.03;1.63;;;;;;;;;;5072240;28;20111;-43
2022/06/27 07:05:36;;;;;;;6.47;2.55;;;;;;;;;;5071931;28;20024;-46
2022/06/27 07:08:02;;;;;;;2.85;1.30;;;;;;;;;;5071952;28;20020;-46
2022/06/27 07:10:28;;;;;;;2.22;1.60;;;;;;;;;;5075987;28;20629;-43
2022/06/27 07:12:54;;;;;;;3.05;1.38;;;;;;;;;;5075856;28;20119;-46
2022/06/27 07:15:19;;;;;;;2.58;1.30;;;;;;;;;;5075888;28;20095;-43
2022/06/27 07:17:47;;;;;;;9.25;3.22;;;;;;;;;;5075601;28;20431;-41
2022/06/27 07:20:18;;;;;;;2.22;1.23;;;;;;;;;;5075901;28;20468;-38
2022/06/27 07:22:45;;;;;;;1.75;1.38;;;;;;;;;;5075932;28;20056;-45
2022/06/27 07:25:10;;;;;;;3.58;1.45;;;;;;;;;;5075875;28;20103;-39
2022/06/27 07:27:36;;;;;;;4.22;2.33;;;;;;;;;;5075505;28;20476;-48
2022/06/27 07:30:04;;;;;;;1.83;1.50;;;;;;;;;;5075811;28;20067;-42
2022/06/27 07:32:31;;;;;;;1.95;1.77;;;;;;;;;;5075802;28;20031;-40
2022/06/27 07:34:59;;;;;;;2.22;1.50;;;;;;;;;;5075399;28;20071;-39
2022/06/27 07:37:25;;;;;;;3.47;1.35;;;;;;;;;;5075316;28;20032;-45
2022/06/27 07:39:50;;;;;;;8.23;1.50;;;;;;;;;;5075585;28;20021;-40
2022/06/27 07:42:16;;;;;;;2.25;1.30;;;;;;;;;;5075295;28;20086;-40
2022/06/27 07:44:42;;;;;;;2.22;1.50;;;;;;;;;;5075446;28;20521;-42
2022/06/27 07:47:08;;;;;;;3.13;1.80;;;;;;;;;;5075471;28;20024;-39
2022/06/27 07:49:33;;;;;;;2.55;1.60;;;;;;;;;;5075336;28;20341;-43
2022/06/27 07:51:59;;;;;;;3.60;1.50;;;;;;;;;;5075140;28;20024;-49
2022/06/27 07:54:26;;;;;;;5.15;1.85;;;;;;;;;;5075266;28;20035;-40
2022/06/27 07:56:53;;;;;;;4.13;2.00;;;;;;;;;;5074939;28;20021;-41
2022/06/27 07:59:19;;;;;;;2.45;1.52;;;;;;;;;;5073764;28;20025;-41
2022/06/27 08:01:44;;;;;;;2.15;1.42;;;;;;;;;;5075137;28;20059;-38
2022/06/27 08:04:12;;;;;;;1.45;1.35;;;;;;;;;;5074946;28;20427;-43
2022/06/27 08:06:38;;;;;;;4.03;1.60;;;;;;;;;;5075137;28;20029;-40
2022/06/27 08:09:06;;;;;;;8.35;1.45;;;;;;;;;;5075042;28;20354;-38
2022/06/27 08:11:35;;;;;;;7.40;1.70;;;;;;;;;;5075085;28;20154;-39
2022/06/27 08:14:08;;;;;;;1.75;1.40;;;;;;;;;;5074966;28;20127;-41
2022/06/27 08:16:36;;;;;;;2.35;1.60;;;;;;;;;;5074954;28;20060;-42
2022/06/27 08:19:03;;;;;;;1.80;1.70;;;;;;;;;;5074709;28;20021;-41
2022/06/27 08:21:30;;;;;;;2.88;1.70;;;;;;;;;;5074112;28;20429;-44
2022/06/27 08:24:00;;;;;;;2.90;1.58;;;;;;;;;;5074434;28;20057;-40
2022/06/27 08:26:27;;;;;;;3.88;2.30;;;;;;;;;;5074262;28;20045;-39
2022/06/27 08:28:53;;;;;;;5.20;1.65;;;;;;;;;;5074676;28;20028;-40
2022/06/27 08:31:20;;;;;;;2.60;1.63;;;;;;;;;;5074404;28;20020;-38
2022/06/27 08:33:47;;;;;;;6.20;1.90;;;;;;;;;;5074362;28;20078;-39
2022/06/27 08:36:14;;;;;;;2.65;1.90;;;;;;;;;;5074245;28;20068;-38
2022/06/27 08:38:42;;;;;;;2.28;1.95;;;;;;;;;;5074175;28;20469;-40
2022/06/27 08:41:10;;;;;;;3.42;1.98;;;;;;;;;;5074477;28;20021;-41
2022/06/27 08:43:36;;;;;;;1.80;1.70;;;;;;;;;;5074456;28;20032;-43
2022/06/27 08:46:02;;;;;;;2.55;1.65;;;;;;;;;;5074417;28;20025;-40
2022/06/27 08:48:29;;;;;;;1.88;1.67;;;;;;;;;;5074394;28;20021;-39
2022/06/27 08:50:59;;;;;;;1.67;1.40;;;;;;;;;;5074279;28;20102;-39
2022/06/27 08:53:26;;;;;;;2.08;1.58;;;;;;;;;;5074590;28;20021;-40
2022/06/27 08:55:52;;;;;;;3.15;1.40;;;;;;;;;;5074110;28;20028;-41
2022/06/27 08:58:19;;;;;;;2.15;1.25;;;;;;;;;;5074174;28;20028;-39
2022/06/27 09:00:47;;;;;;;3.80;1.40;;;;;;;;;;5074027;28;20082;-40
2022/06/27 09:03:17;;;;;;;2.55;1.60;;;;;;;;;;5074079;28;20070;-41
2022/06/27 09:05:45;;;;;;;2.78;1.48;;;;;;;;;;5073826;28;20028;-44
2022/06/27 09:08:10;;;;;;;1.63;1.45;;;;;;;;;;5071820;28;20051;-48
2022/06/27 09:10:42;;;;;;;4.55;1.40;;;;;;;;;;5071957;28;20459;-43
2022/06/27 09:13:09;;;;;;;2.42;1.75;;;;;;;;;;5072773;28;20475;-42
2022/06/27 09:15:37;;;;;;;1.50;1.33;;;;;;;;;;5073569;28;20032;-42
2022/06/27 09:18:05;;;;;;;1.70;1.40;;;;;;;;;;5073334;28;20025;-48
2022/06/27 09:21:05;;;;;;;4.10;1.50;;;;;;;;;;5073400;28;20037;-42
2022/06/27 09:23:47;;;;;;;2.05;1.40;;;;;;;;;;5073225;28;20136;-49
2022/06/27 09:26:25;;;;;;;1.77;1.48;;;;;;;;;;5073098;28;20091;-45
2022/06/27 09:29:00;;;;;;;2.22;1.40;;;;;;;;;;5073339;28;20020;-41
2022/06/27 09:31:28;;;;;;;4.28;1.40;;;;;;;;;;5072755;28;20499;-44
2022/06/27 09:34:15;;;;;;;1.95;1.50;;;;;;;;;;5072424;28;20504;-40
2022/06/27 09:36:51;;;;;;;4.75;1.58;;;;;;;;;;5073309;28;20063;-44
2022/06/27 09:39:19;;;;;;;1.42;1.33;;;;;;;;;;5072607;28;20033;-40
2022/06/27 09:41:54;;;;;;;4.25;1.48;;;;;;;;;;5083716;28;20388;-39
2022/06/27 09:44:22;;;;;;;3.60;1.65;;;;;;;;;;5053197;28;20104;-39
2022/06/27 09:46:54;;;;;;;1.70;1.60;;;;;;;;;;5053139;28;20033;-40
2022/06/27 09:49:21;;;;;;;1.75;1.63;;;;;;;;;;5053187;28;20029;-40
2022/06/27 09:51:48;;;;;;;2.45;1.73;;;;;;;;;;5051595;28;20481;-38
2022/06/27 09:54:16;;;;;;;1.58;1.38;;;;;;;;;;5052879;28;20029;-39
2022/06/27 09:56:42;;;;;;;2.70;1.77;;;;;;;;;;5052909;28;20025;-42
2022/06/27 09:59:12;;;;;;;4.78;1.92;;;;;;;;;;5052613;28;20159;-41
2022/06/27 10:01:41;;;;;;;2.15;1.70;;;;;;;;;;5052596;28;20036;-42
2022/06/27 10:04:08;;;;;;;3.15;1.70;;;;;;;;;;5052798;28;20025;-41
2022/06/27 10:06:37;;;;;;;2.97;1.63;;;;;;;;;;5052668;28;20052;-40
2022/06/27 10:09:04;;;;;;;4.13;1.95;;;;;;;;;;5052769;28;20029;-44
2022/06/27 10:11:29;;;;;;;1.58;1.48;;;;;;;;;;5052814;28;20040;-44
2022/06/27 10:14:13;;;;;;;6.30;1.52;;;;;;;;;;5052580;28;20366;-45
2022/06/27 10:16:55;;;;;;;2.78;1.40;;;;;;;;;;5052743;28;20082;-39
2022/06/27 10:19:22;;;;;;;3.60;1.60;;;;;;;;;;5052720;28;20031;-41
2022/06/27 10:21:49;;;;;;;1.60;1.50;;;;;;;;;;5052348;28;20021;-40
2022/06/27 10:24:26;;;;;;;1.92;1.65;;;;;;;;;;5052740;28;20104;-44
2022/06/27 10:26:57;;;;;;;1.73;1.60;;;;;;;;;;5052424;28;20059;-41
2022/06/27 10:29:41;;;;;;;3.55;2.40;;;;;;;;;;5052413;28;20025;-42
2022/06/27 10:32:28;;;;;;;2.50;1.60;;;;;;;;;;5052631;28;20029;-38
2022/06/27 10:34:53;;;;;;;3.10;1.60;;;;;;;;;;5052228;28;20108;-42
2022/06/27 10:37:24;;;;;;;2.33;1.85;;;;;;;;;;5052107;28;20136;-44
2022/06/27 10:40:08;;;;;;;5.53;1.50;;;;;;;;;;5052062;28;20025;-39
2022/06/27 10:42:51;;;;;;;3.08;1.60;;;;;;;;;;5052403;28;20032;-41
2022/06/27 10:45:19;;;;;;;3.95;1.80;;;;;;;;;;5055955;28;20124;-48
2022/06/27 10:47:48;;;;;;;2.25;1.90;;;;;;;;;;5056304;28;20025;-45
2022/06/27 10:50:15;;;;;;;2.05;1.77;;;;;;;;;;5056332;28;20060;-42
2022/06/27 10:52:41;;;;;;;2.75;2.17;;;;;;;;;;5056170;28;20104;-41
2022/06/27 10:55:24;;;;;;;1.70;1.60;;;;;;;;;;5056315;28;20533;-41
2022/06/27 10:57:51;;;;;;;1.83;1.60;;;;;;;;;;5056293;28;20114;-47
2022/06/27 11:00:42;;;;;;;2.70;1.70;;;;;;;;;;5056110;28;20114;-40
2022/06/27 11:03:23;;;;;;;4.45;2.30;;;;;;;;;;5055028;28;20112;-39
2022/06/27 11:06:04;;;;;;;2.90;1.55;;;;;;;;;;5056278;28;20025;-38
2022/06/27 11:08:34;;;;;;;3.33;2.40;;;;;;;;;;5055803;28;20039;-39
2022/06/27 11:10:59;;;;;;;;;;;;;;;;;;5056613;28;20305;-37
2022/06/27 11:13:39;;;;;;;5.30;2.30;;;;;;;;;;5055504;28;19940;-40
2022/06/27 11:16:07;;;;;;;13.77;5.82;;;;;;;;;;5056041;28;20112;-42
2022/06/27 11:18:43;;;;;;;3.55;2.05;;;;;;;;;;5055705;28;20021;-43
2022/06/27 11:21:11;;;;;;;3.55;2.50;;;;;;;;;;5070895;28;20017;-50
2022/06/27 11:23:53;;;;;;;3.75;3.17;;;;;;;;;;5054481;28;20028;-42
2022/06/27 11:26:20;;;;;;;4.25;2.00;;;;;;;;;;5055584;28;20055;-44
2022/06/27 11:32:12;;;;;;;1.70;1.60;;;;;;;;;;5055101;28;20487;-47
2022/06/27 11:34:19;;;;;;;3.50;1.90;;;;;;;;;;5053107;28;20040;-47
2022/06/27 11:36:46;;;;;;;2.25;1.50;;;;;;;;;;5053208;28;20324;-51
2022/06/27 11:39:11;;;;;;;1.77;1.60;;;;;;;;;;5054737;28;20044;-41
2022/06/27 11:41:40;;;;;;;2.88;2.08;;;;;;;;;;5054832;28;20029;-42
2022/06/27 11:44:07;;;;;;;4.28;2.08;;;;;;;;;;5055014;28;20029;-44
2022/06/27 11:46:34;;;;;;;1.73;1.63;;;;;;;;;;5054682;28;20104;-45
2022/06/27 11:49:11;;;;;;;2.28;1.73;;;;;;;;;;5055041;28;20029;-43
2022/06/27 11:51:39;;;;;;;4.07;2.10;;;;;;;;;;5055193;28;20064;-44
2022/06/27 11:54:15;;;;;;;5.30;1.85;;;;;;;;;;5055476;28;20388;-42
2022/06/27 11:56:47;;;;;;;2.88;1.63;;;;;;;;;;5054178;28;20064;-38
2022/06/27 11:59:14;;;;;;;4.05;1.85;;;;;;;;;;5055068;28;20042;-38
2022/06/27 12:01:57;;;;;;;3.03;2.20;;;;;;;;;;5054925;28;20021;-44
2022/06/27 12:04:33;;;;;;;1.70;1.60;;;;;;;;;;5054903;28;20100;-42
2022/06/27 12:07:09;;;;;;;1.95;1.80;;;;;;;;;;5055228;28;20306;-41
2022/06/27 12:09:49;;;;;;;4.68;1.73;;;;;;;;;;5054936;28;20055;-40
2022/06/27 12:12:25;;;;;;;2.40;1.90;;;;;;;;;;5054760;28;20028;-38
2022/06/27 12:14:53;;;;;;;2.72;1.85;;;;;;;;;;5054631;28;20037;-43
2022/06/27 12:17:19;;;;;;;1.92;1.80;;;;;;;;;;5054910;28;20055;-38
2022/06/27 12:19:45;;;;;;;3.30;1.50;;;;;;;;;;5054945;28;20032;-47
2022/06/27 12:22:12;;;;;;;7.13;1.60;;;;;;;;;;5054670;28;20025;-45
2022/06/27 12:24:38;;;;;;;4.55;1.70;;;;;;;;;;5054818;28;20025;-44
2022/06/27 12:27:04;;;;;;;3.40;1.58;;;;;;;;;;5054386;28;20052;-43
2022/06/27 12:29:31;;;;;;;4.00;1.80;;;;;;;;;;5054468;28;20024;-42
2022/06/27 12:31:56;;;;;;;3.08;1.80;;;;;;;;;;5053460;28;20028;-40
2022/06/27 12:34:22;;;;;;;2.35;1.60;;;;;;;;;;5054417;28;20048;-41
2022/06/27 12:36:48;;;;;;;1.67;1.58;;;;;;;;;;5054105;28;20036;-48
2022/06/27 12:39:13;;;;;;;1.92;1.70;;;;;;;;;;5054320;28;20025;-45
2022/06/27 12:41:38;;;;;;;1.83;1.70;;;;;;;;;;5054558;28;20032;-44
2022/06/27 12:44:05;;;;;;;5.13;1.75;;;;;;;;;;5054136;28;20025;-46
2022/06/27 12:46:31;;;;;;;4.07;2.05;;;;;;;;;;5054435;28;20029;-44
2022/06/27 12:48:56;;;;;;;2.00;1.70;;;;;;;;;;5054358;28;20139;-47
2022/06/27 12:51:24;;;;;;;3.20;1.80;;;;;;;;;;5054289;28;20052;-49
2022/06/27 12:53:50;;;;;;;4.55;1.67;;;;;;;;;;5054228;28;20405;-50
2022/06/27 12:56:16;;;;;;;2.78;2.10;;;;;;;;;;5054199;28;20048;-45
2022/06/27 12:58:42;;;;;;;1.70;1.60;;;;;;;;;;5054134;28;20059;-42
2022/06/27 13:01:09;;;;;;;1.75;1.65;;;;;;;;;;5053990;28;20373;-45
2022/06/27 13:03:34;;;;;;;5.72;2.08;;;;;;;;;;5053738;28;20412;-49
2022/06/27 13:06:00;;;;;;;3.90;1.98;;;;;;;;;;5053694;28;20059;-46
2022/06/27 13:08:25;;;;;;;3.40;1.98;;;;;;;;;;5052214;28;20025;-46
2022/06/27 13:10:51;;;;;;;1.80;1.70;;;;;;;;;;5053729;28;20028;-43
2022/06/27 13:13:16;;;;;;;2.33;1.83;;;;;;;;;;5053581;28;20607;-37
2022/06/27 13:15:42;;;;;;;3.97;2.00;;;;;;;;;;5053536;28;20032;-47
2022/06/27 13:18:08;;;;;;;1.75;1.55;;;;;;;;;;5053544;28;20025;-43
2022/06/27 13:20:34;;;;;;;3.67;1.80;;;;;;;;;;5053809;28;20028;-43
2022/06/27 13:23:00;;;;;;;4.72;2.00;;;;;;;;;;5053388;28;20029;-40
2022/06/27 13:25:25;;;;;;;2.35;1.90;;;;;;;;;;5053469;28;20508;-37
2022/06/27 13:27:51;;;;;;;2.10;1.90;;;;;;;;;;5053278;28;20070;-47
2022/06/27 13:30:17;;;;;;;2.35;1.88;;;;;;;;;;5053285;28;20067;-43
2022/06/27 13:32:42;;;;;;;1.95;1.85;;;;;;;;;;5053279;28;20025;-40
2022/06/27 13:35:08;;;;;;;4.05;2.28;;;;;;;;;;5053535;28;20025;-43
2022/06/27 13:37:34;;;;;;;2.80;1.70;;;;;;;;;;5053037;28;20025;-39
2022/06/27 13:40:00;;;;;;;4.03;1.80;;;;;;;;;;5053162;28;20059;-39
2022/06/27 13:42:26;;;;;;;4.80;1.75;;;;;;;;;;5053056;28;20473;-37
2022/06/27 13:44:53;;;;;;;2.63;1.80;;;;;;;;;;5052970;28;20052;-46
2022/06/27 13:47:19;;;;;;;2.53;1.73;;;;;;;;;;5053240;28;20025;-39
2022/06/27 13:49:50;;;;;;;2.15;1.60;;;;;;;;;;5055509;28;20029;-40
2022/06/27 13:52:17;;;;;;;6.05;1.70;;;;;;;;;;5072746;28;20033;-38
2022/06/27 13:54:43;;;;;;;1.90;1.80;;;;;;;;;;5072447;28;20031;-40
2022/06/27 13:57:09;;;;;;;2.22;1.80;;;;;;;;;;5071079;28;20032;-38
2022/06/27 13:59:35;;;;;;;7.55;2.85;;;;;;;;;;5072853;28;20036;-51
2022/06/27 14:02:00;;;;;;;2.88;2.25;;;;;;;;;;5072785;28;20474;-45
2022/06/27 14:04:26;;;;;;;2.70;1.98;;;;;;;;;;5072776;28;20070;-51
2022/06/27 14:09:36;;;;;;;4.00;2.33;;;;;;;;;;5072763;28;20149;-54
2022/06/27 14:12:01;;;;;;;1.98;1.88;;;;;;;;;;5072707;28;20480;-55
2022/06/27 14:14:26;;;;;;;2.15;1.85;;;;;;;;;;5072607;28;20480;-53
2022/06/27 14:16:52;;;;;;;1.58;1.48;;;;;;;;;;5072458;28;20081;-51
2022/06/27 14:19:20;;;;;;;2.63;1.60;;;;;;;;;;5072269;28;20033;-50
2022/06/27 14:21:46;;;;;;;1.80;1.70;;;;;;;;;;5072460;28;20121;-52
2022/06/27 14:24:12;;;;;;;2.08;1.88;;;;;;;;;;5072811;28;20063;-39
2022/06/27 14:26:37;;;;;;;3.35;1.70;;;;;;;;;;5072140;28;20115;-38
2022/06/27 14:29:03;;;;;;;2.88;2.00;;;;;;;;;;5072388;28;20029;-38
2022/06/27 14:31:28;;;;;;;2.65;2.08;;;;;;;;;;5072435;28;20029;-38
2022/06/27 14:33:54;;;;;;;8.38;2.70;;;;;;;;;;5072501;28;20035;-38
2022/06/27 14:36:20;;;;;;;1.83;1.63;;;;;;;;;;5072380;28;20063;-39
2022/06/27 14:38:45;;;;;;;3.33;1.70;;;;;;;;;;5072184;28;20055;-39
2022/06/27 14:41:10;;;;;;;3.10;2.10;;;;;;;;;;5072114;28;20465;-38
2022/06/27 14:43:36;;;;;;;4.22;1.80;;;;;;;;;;5072516;28;20024;-43
2022/06/27 14:46:01;;;;;;;3.25;1.98;;;;;;;;;;5072543;28;20024;-40
2022/06/27 14:48:27;;;;;;;4.40;1.90;;;;;;;;;;5072289;28;20569;-39
2022/06/27 14:50:53;;;;;;;2.40;1.85;;;;;;;;;;5067445;28;20040;-39